Woodworth, North Dakota
Current Conditions -  °F | °C
As of 10:15 AM on Tuesday 21 Oct 2014 (Local Time) from K46D Reporting Station
NA  
Wind Chill: 54°   Ceiling: NA
Heat Index: 54°   Visibility: NA
Dew Point: 39°   Wind: 26mph
Humidity: 58%   Direction: 150°SSE
Pressure: 29.87"   Gusts: 32mph
Location:  47.14°N, 99.3°W
Report Text: K46D 211515Z AUTO 15023G28KT 12/04 A2987 RMK AO2
Loading
Personal Weather Stations






























Interactive Weather Map
Tropical Storm Tracking
New forecast layout! Learn more

10-Day Weather Forecast

Advertisements
Track Severe Weather on mobile